sensor_id;sensor_type;location;lat;lon;timestamp;pressure;altitude;pressure_sealevel;temperature;humidity
78309;BME280;75657;42.022;21.356;2024-03-23T00:55:54;98814.41;;;6.34;60.15
78309;BME280;75657;42.022;21.356;2024-03-23T00:58:19;98804.88;;;6.38;59.58
78309;BME280;75657;42.022;21.356;2024-03-23T01:00:45;98805.91;;;6.32;60.67
78309;BME280;75657;42.022;21.356;2024-03-23T01:03:10;98808.31;;;6.34;59.93
78309;BME280;75657;42.022;21.356;2024-03-23T01:05:35;98804.34;;;6.26;60.21
78309;BME280;75657;42.022;21.356;2024-03-23T01:08:01;98808.84;;;6.31;60.18
78309;BME280;75657;42.022;21.356;2024-03-23T01:10:27;98806.19;;;6.31;59.89
78309;BME280;75657;42.022;21.356;2024-03-23T01:12:52;98807.00;;;6.31;60.31
78309;BME280;75657;42.022;21.356;2024-03-23T01:15:18;98810.69;;;6.20;60.61
78309;BME280;75657;42.022;21.356;2024-03-23T01:17:43;98807.78;;;6.16;60.30
78309;BME280;75657;42.022;21.356;2024-03-23T01:20:09;98804.63;;;6.09;60.77
78309;BME280;75657;42.022;21.356;2024-03-23T01:22:35;98814.16;;;6.00;60.97
78309;BME280;75657;42.022;21.356;2024-03-23T01:25:01;98807.78;;;5.96;61.10
78309;BME280;75657;42.022;21.356;2024-03-23T01:27:26;98811.75;;;5.93;61.03
78309;BME280;75657;42.022;21.356;2024-03-23T01:29:51;98812.25;;;5.80;61.71
78309;BME280;75657;42.022;21.356;2024-03-23T01:32:18;98809.88;;;5.78;61.63
78309;BME280;75657;42.022;21.356;2024-03-23T01:34:44;98822.03;;;5.74;61.63
78309;BME280;75657;42.022;21.356;2024-03-23T01:37:09;98817.81;;;5.73;61.63
78309;BME280;75657;42.022;21.356;2024-03-23T01:39:35;98817.00;;;5.73;61.77
78309;BME280;75657;42.022;21.356;2024-03-23T01:42:00;98818.09;;;5.72;61.73
78309;BME280;75657;42.022;21.356;2024-03-23T01:44:26;98814.34;;;5.57;61.95
78309;BME280;75657;42.022;21.356;2024-03-23T01:46:51;98820.69;;;5.56;62.13
78309;BME280;75657;42.022;21.356;2024-03-23T01:49:37;98815.66;;;5.55;62.50
78309;BME280;75657;42.022;21.356;2024-03-23T01:52:02;98821.22;;;5.58;62.60
78309;BME280;75657;42.022;21.356;2024-03-23T01:54:29;98811.97;;;5.61;62.15
78309;BME280;75657;42.022;21.356;2024-03-23T01:56:55;98810.13;;;5.61;62.72
78309;BME280;75657;42.022;21.356;2024-03-23T01:59:21;98809.59;;;5.70;62.39
78309;BME280;75657;42.022;21.356;2024-03-23T02:01:46;98820.19;;;5.75;62.39
78309;BME280;75657;42.022;21.356;2024-03-23T02:04:12;98804.31;;;5.75;62.79
78309;BME280;75657;42.022;21.356;2024-03-23T02:06:37;98810.91;;;5.62;63.48
78309;BME280;75657;42.022;21.356;2024-03-23T02:09:03;98813.31;;;5.63;63.65
78309;BME280;75657;42.022;21.356;2024-03-23T02:11:29;98811.97;;;5.61;63.37
78309;BME280;75657;42.022;21.356;2024-03-23T02:13:54;98821.75;;;5.55;63.53
78309;BME280;75657;42.022;21.356;2024-03-23T02:16:19;98816.19;;;5.52;64.04
78309;BME280;75657;42.022;21.356;2024-03-23T02:18:45;98816.97;;;5.57;63.70
78309;BME280;75657;42.022;21.356;2024-03-23T02:21:10;98820.44;;;5.58;64.22
78309;BME280;75657;42.022;21.356;2024-03-23T02:23:36;98812.50;;;5.53;64.35
78309;BME280;75657;42.022;21.356;2024-03-23T02:26:01;98811.97;;;5.61;64.07
78309;BME280;75657;42.022;21.356;2024-03-23T02:28:27;98819.38;;;5.69;63.61
78309;BME280;75657;42.022;21.356;2024-03-23T02:30:52;98817.81;;;5.63;64.11
78309;BME280;75657;42.022;21.356;2024-03-23T02:33:18;98817.00;;;5.67;64.21
78309;BME280;75657;42.022;21.356;2024-03-23T02:35:44;98815.97;;;5.74;64.37
78309;BME280;75657;42.022;21.356;2024-03-23T02:38:10;98815.16;;;5.78;64.26
78309;BME280;75657;42.022;21.356;2024-03-23T02:40:35;98808.31;;;5.82;63.82
78309;BME280;75657;42.022;21.356;2024-03-23T02:43:02;98813.06;;;5.85;62.96
78309;BME280;75657;42.022;21.356;2024-03-23T02:45:28;98813.06;;;5.85;63.42
78309;BME280;75657;42.022;21.356;2024-03-23T02:47:53;98819.66;;;5.83;63.40
78309;BME280;75657;42.022;21.356;2024-03-23T02:50:19;98821.78;;;5.86;63.53
78309;BME280;75657;42.022;21.356;2024-03-23T02:52:45;98815.72;;;5.91;62.83
78309;BME280;75657;42.022;21.356;2024-03-23T02:55:11;98821.78;;;5.91;63.55
78309;BME280;75657;42.022;21.356;2024-03-23T02:57:37;98820.75;;;5.97;63.02
78309;BME280;75657;42.022;21.356;2024-03-23T03:00:03;98822.34;;;6.03;62.51
78309;BME280;75657;42.022;21.356;2024-03-23T03:02:29;98814.94;;;6.00;62.88
78309;BME280;75657;42.022;21.356;2024-03-23T03:04:54;98816.53;;;5.96;63.61
78309;BME280;75657;42.022;21.356;2024-03-23T03:07:20;98823.13;;;5.99;63.32
78309;BME280;75657;42.022;21.356;2024-03-23T03:09:45;98819.97;;;6.02;63.58
78309;BME280;75657;42.022;21.356;2024-03-23T03:12:10;98824.72;;;6.05;63.63
78309;BME280;75657;42.022;21.356;2024-03-23T03:14:36;98823.41;;;6.02;65.19
78309;BME280;75657;42.022;21.356;2024-03-23T03:17:01;98822.34;;;6.03;65.34
78309;BME280;75657;42.022;21.356;2024-03-23T03:19:27;98818.63;;;6.04;65.66
78309;BME280;75657;42.022;21.356;2024-03-23T03:21:53;98814.41;;;6.09;65.65
78309;BME280;75657;42.022;21.356;2024-03-23T03:24:18;98810.97;;;6.13;64.93
78309;BME280;75657;42.022;21.356;2024-03-23T03:26:44;98818.91;;;6.13;64.86
78309;BME280;75657;42.022;21.356;2024-03-23T03:29:09;98818.38;;;6.21;64.69
78309;BME280;75657;42.022;21.356;2024-03-23T03:31:35;98814.69;;;6.17;66.12
78309;BME280;75657;42.022;21.356;2024-03-23T03:34:01;98813.59;;;6.18;65.96
78309;BME280;75657;42.022;21.356;2024-03-23T03:36:27;98814.16;;;6.26;65.35
78309;BME280;75657;42.022;21.356;2024-03-23T03:38:53;98813.34;;;6.35;65.23
78309;BME280;75657;42.022;21.356;2024-03-23T03:41:19;98809.09;;;6.39;64.54
78309;BME280;75657;42.022;21.356;2024-03-23T03:43:44;98813.59;;;6.44;64.56
78309;BME280;75657;42.022;21.356;2024-03-23T03:46:10;98810.69;;;6.40;65.07
78309;BME280;75657;42.022;21.356;2024-03-23T03:48:36;98810.69;;;6.40;65.28
78309;BME280;75657;42.022;21.356;2024-03-23T03:51:01;98815.97;;;6.46;65.29
78309;BME280;75657;42.022;21.356;2024-03-23T03:53:27;98810.94;;;6.39;65.16
78309;BME280;75657;42.022;21.356;2024-03-23T03:55:52;98814.38;;;6.45;64.85
78309;BME280;75657;42.022;21.356;2024-03-23T03:58:18;98817.56;;;6.47;65.46
78309;BME280;75657;42.022;21.356;2024-03-23T04:00:43;98815.16;;;6.50;64.85
78309;BME280;75657;42.022;21.356;2024-03-23T04:03:09;98818.59;;;6.51;64.81
78309;BME280;75657;42.022;21.356;2024-03-23T04:05:34;98817.25;;;6.53;64.84
78309;BME280;75657;42.022;21.356;2024-03-23T04:08:00;98818.06;;;6.59;64.59
78309;BME280;75657;42.022;21.356;2024-03-23T04:10:25;98821.75;;;6.63;64.69
78309;BME280;75657;42.022;21.356;2024-03-23T04:12:52;98815.41;;;6.64;64.36
78309;BME280;75657;42.022;21.356;2024-03-23T04:15:17;98819.09;;;6.63;63.59
78309;BME280;75657;42.022;21.356;2024-03-23T04:17:43;98819.09;;;6.68;63.22
78309;BME280;75657;42.022;21.356;2024-03-23T04:20:09;98819.34;;;6.72;62.73
78309;BME280;75657;42.022;21.356;2024-03-23T04:22:39;98824.63;;;6.77;63.49
78309;BME280;75657;42.022;21.356;2024-03-23T04:25:05;98814.81;;;6.77;63.29
78309;BME280;75657;42.022;21.356;2024-03-23T04:27:36;98822.75;;;6.83;62.88
78309;BME280;75657;42.022;21.356;2024-03-23T04:30:02;98819.03;;;6.84;62.67
78309;BME280;75657;42.022;21.356;2024-03-23T04:32:30;98821.44;;;6.80;62.79
78309;BME280;75657;42.022;21.356;2024-03-23T04:34:55;98819.84;;;6.79;63.11
78309;BME280;75657;42.022;21.356;2024-03-23T04:37:21;98824.63;;;6.77;62.72
78309;BME280;75657;42.022;21.356;2024-03-23T04:39:47;98820.09;;;6.77;63.06
78309;BME280;75657;42.022;21.356;2024-03-23T04:42:15;98821.44;;;6.80;63.06
78309;BME280;75657;42.022;21.356;2024-03-23T04:44:40;98820.63;;;6.79;63.10
78309;BME280;75657;42.022;21.356;2024-03-23T04:47:06;98821.44;;;6.80;63.28
78309;BME280;75657;42.022;21.356;2024-03-23T04:49:31;98827.53;;;6.80;62.85
78309;BME280;75657;42.022;21.356;2024-03-23T04:51:56;98827.25;;;6.82;63.43
78309;BME280;75657;42.022;21.356;2024-03-23T04:54:22;98823.28;;;6.79;63.08
78309;BME280;75657;42.022;21.356;2024-03-23T04:56:47;98825.91;;;6.85;63.27
78309;BME280;75657;42.022;21.356;2024-03-23T04:59:13;98824.06;;;6.85;63.17
78309;BME280;75657;42.022;21.356;2024-03-23T05:01:38;98819.81;;;6.89;62.87
78309;BME280;75657;42.022;21.356;2024-03-23T05:04:07;98828.28;;;6.86;63.23
78309;BME280;75657;42.022;21.356;2024-03-23T05:06:32;98826.97;;;6.84;63.83
78309;BME280;75657;42.022;21.356;2024-03-23T05:08:59;98825.38;;;6.88;63.31
78309;BME280;75657;42.022;21.356;2024-03-23T05:11:25;98829.34;;;6.90;63.46
78309;BME280;75657;42.022;21.356;2024-03-23T05:13:50;98825.63;;;6.91;63.46
78309;BME280;75657;42.022;21.356;2024-03-23T05:16:16;98823.75;;;6.92;63.59
78309;BME280;75657;42.022;21.356;2024-03-23T05:18:41;98833.28;;;6.93;63.72
78309;BME280;75657;42.022;21.356;2024-03-23T05:21:07;98827.72;;;6.99;63.36
78309;BME280;75657;42.022;21.356;2024-03-23T05:23:32;98824.25;;;7.04;63.88
78309;BME280;75657;42.022;21.356;2024-03-23T05:25:58;98825.31;;;7.08;63.74
78309;BME280;75657;42.022;21.356;2024-03-23T05:28:23;98825.56;;;7.12;63.67
78309;BME280;75657;42.022;21.356;2024-03-23T05:30:55;98821.81;;;7.18;64.00
78309;BME280;75657;42.022;21.356;2024-03-23T05:33:22;98827.63;;;7.20;63.70
78309;BME280;75657;42.022;21.356;2024-03-23T05:35:56;98830.78;;;7.27;63.53
78309;BME280;75657;42.022;21.356;2024-03-23T05:38:22;98828.09;;;7.32;63.65
78309;BME280;75657;42.022;21.356;2024-03-23T05:40:57;98824.09;;;7.40;63.82
78309;BME280;75657;42.022;21.356;2024-03-23T05:43:24;98837.06;;;7.42;63.88
78309;BME280;75657;42.022;21.356;2024-03-23T05:46:00;98834.38;;;7.47;64.04
78309;BME280;75657;42.022;21.356;2024-03-23T05:48:27;98826.69;;;7.50;64.54
78309;BME280;75657;42.022;21.356;2024-03-23T05:50:53;98832.50;;;7.52;64.88
78309;BME280;75657;42.022;21.356;2024-03-23T05:53:20;98832.75;;;7.51;64.89
78309;BME280;75657;42.022;21.356;2024-03-23T05:55:49;98834.84;;;7.59;64.62
78309;BME280;75657;42.022;21.356;2024-03-23T05:58:15;98836.44;;;7.60;65.40
78309;BME280;75657;42.022;21.356;2024-03-23T06:00:41;98824.47;;;7.63;65.09
78309;BME280;75657;42.022;21.356;2024-03-23T06:03:08;98831.84;;;7.71;65.16
78309;BME280;75657;42.022;21.356;2024-03-23T06:05:33;98839.22;;;7.74;65.48
78309;BME280;75657;42.022;21.356;2024-03-23T06:07:59;98832.63;;;7.71;66.10
78309;BME280;75657;42.022;21.356;2024-03-23T06:10:24;98829.47;;;7.69;65.65
78309;BME280;75657;42.022;21.356;2024-03-23T06:12:50;98827.56;;;7.75;66.18
78309;BME280;75657;42.022;21.356;2024-03-23T06:15:18;98832.03;;;7.85;65.96
78309;BME280;75657;42.022;21.356;2024-03-23T06:17:43;98831.16;;;7.94;65.73
78309;BME280;75657;42.022;21.356;2024-03-23T06:20:09;98836.38;;;8.05;65.49
78309;BME280;75657;42.022;21.356;2024-03-23T06:22:35;98839.50;;;8.12;65.49
78309;BME280;75657;42.022;21.356;2024-03-23T06:25:01;98833.06;;;8.23;65.33
78309;BME280;75657;42.022;21.356;2024-03-23T06:27:27;98835.63;;;8.34;64.56
78309;BME280;75657;42.022;21.356;2024-03-23T06:29:52;98836.63;;;8.43;64.29
78309;BME280;75657;42.022;21.356;2024-03-23T06:32:18;98835.19;;;8.50;64.28
78309;BME280;75657;42.022;21.356;2024-03-23T06:34:43;98833.53;;;8.60;63.71
78309;BME280;75657;42.022;21.356;2024-03-23T06:37:10;98829.19;;;8.69;64.06
78309;BME280;75657;42.022;21.356;2024-03-23T06:39:38;98835.72;;;8.77;62.93
78309;BME280;75657;42.022;21.356;2024-03-23T06:42:04;98831.41;;;8.86;63.11
78309;BME280;75657;42.022;21.356;2024-03-23T06:44:30;98830.75;;;8.94;63.15
78309;BME280;75657;42.022;21.356;2024-03-23T06:46:56;98838.31;;;9.06;62.95
78309;BME280;75657;42.022;21.356;2024-03-23T06:49:22;98838.78;;;9.13;63.47
78309;BME280;75657;42.022;21.356;2024-03-23T06:51:48;98832.91;;;9.16;62.57
78309;BME280;75657;42.022;21.356;2024-03-23T06:54:14;98833.00;;;9.30;63.76
78309;BME280;75657;42.022;21.356;2024-03-23T06:56:40;98838.38;;;9.44;63.92
78309;BME280;75657;42.022;21.356;2024-03-23T06:59:05;98838.47;;;9.58;64.16
78309;BME280;75657;42.022;21.356;2024-03-23T07:01:31;98842.25;;;9.71;63.24
78309;BME280;75657;42.022;21.356;2024-03-23T07:03:56;98832.75;;;9.83;63.54
78309;BME280;75657;42.022;21.356;2024-03-23T07:06:22;98826.22;;;9.95;63.83
78309;BME280;75657;42.022;21.356;2024-03-23T07:08:47;98838.78;;;10.08;63.78
78309;BME280;75657;42.022;21.356;2024-03-23T07:11:19;98841.09;;;10.29;63.65
78309;BME280;75657;42.022;21.356;2024-03-23T07:13:45;98839.06;;;10.39;63.72
78309;BME280;75657;42.022;21.356;2024-03-23T07:16:10;98837.41;;;10.44;63.99
78309;BME280;75657;42.022;21.356;2024-03-23T07:18:36;98833.47;;;10.55;63.51
78309;BME280;75657;42.022;21.356;2024-03-23T07:21:01;98832.22;;;10.66;63.53
78309;BME280;75657;42.022;21.356;2024-03-23T07:23:27;98827.78;;;10.75;63.11
78309;BME280;75657;42.022;21.356;2024-03-23T07:26:02;98831.53;;;10.88;61.93
78309;BME280;75657;42.022;21.356;2024-03-23T07:28:28;98824.81;;;10.91;62.87
78309;BME280;75657;42.022;21.356;2024-03-23T07:31:07;98809.91;;;11.04;61.83
78309;BME280;75657;42.022;21.356;2024-03-23T07:33:36;98814.94;;;11.19;61.75
78309;BME280;75657;42.022;21.356;2024-03-23T07:36:02;98813.13;;;11.28;61.62
78309;BME280;75657;42.022;21.356;2024-03-23T07:38:28;98811.03;;;11.39;61.53
78309;BME280;75657;42.022;21.356;2024-03-23T07:41:08;98810.03;;;11.49;61.03
78309;BME280;75657;42.022;21.356;2024-03-23T07:43:34;98806.94;;;11.56;60.63
78309;BME280;75657;42.022;21.356;2024-03-23T07:46:00;98806.94;;;11.56;60.87
78309;BME280;75657;42.022;21.356;2024-03-23T07:48:26;98801.16;;;11.40;60.97
78309;BME280;75657;42.022;21.356;2024-03-23T07:50:58;98797.91;;;11.43;60.60
78309;BME280;75657;42.022;21.356;2024-03-23T07:53:24;98803.69;;;11.59;61.03
78309;BME280;75657;42.022;21.356;2024-03-23T07:56:00;98803.69;;;11.81;59.74
78309;BME280;75657;42.022;21.356;2024-03-23T07:58:26;98805.81;;;11.93;60.20
78309;BME280;75657;42.022;21.356;2024-03-23T08:00:53;98797.75;;;12.07;59.48
78309;BME280;75657;42.022;21.356;2024-03-23T08:03:19;98800.59;;;12.11;59.38
78309;BME280;75657;42.022;21.356;2024-03-23T08:05:44;98796.91;;;12.20;59.51
78309;BME280;75657;42.022;21.356;2024-03-23T08:08:10;98793.16;;;12.30;59.19
78309;BME280;75657;42.022;21.356;2024-03-23T08:10:36;98793.88;;;12.44;58.38
78309;BME280;75657;42.022;21.356;2024-03-23T08:13:02;98796.59;;;12.53;58.53
78309;BME280;75657;42.022;21.356;2024-03-23T08:15:30;98786.06;;;12.57;57.41
78309;BME280;75657;42.022;21.356;2024-03-23T08:17:59;98784.34;;;12.61;58.08
78309;BME280;75657;42.022;21.356;2024-03-23T08:20:24;98791.84;;;12.50;57.58
78309;BME280;75657;42.022;21.356;2024-03-23T08:22:50;98788.94;;;12.29;57.03
78309;BME280;75657;42.022;21.356;2024-03-23T08:25:15;98791.69;;;12.46;57.38
78309;BME280;75657;42.022;21.356;2024-03-23T08:27:44;98793.97;;;12.31;57.54
78309;BME280;75657;42.022;21.356;2024-03-23T08:30:10;98788.97;;;12.38;56.99
78309;BME280;75657;42.022;21.356;2024-03-23T08:32:36;98784.31;;;12.52;57.59
78309;BME280;75657;42.022;21.356;2024-03-23T08:35:01;98774.44;;;12.61;56.71
78309;BME280;75657;42.022;21.356;2024-03-23T08:37:27;98774.81;;;12.69;56.73
78309;BME280;75657;42.022;21.356;2024-03-23T08:39:52;98770.59;;;12.85;56.14
78309;BME280;75657;42.022;21.356;2024-03-23T08:42:18;98762.59;;;12.94;56.62
78309;BME280;75657;42.022;21.356;2024-03-23T08:44:43;98754.09;;;12.83;56.96
78309;BME280;75657;42.022;21.356;2024-03-23T08:47:11;98756.66;;;13.06;56.83
78309;BME280;75657;42.022;21.356;2024-03-23T08:49:37;98752.88;;;13.24;56.68
78309;BME280;75657;42.022;21.356;2024-03-23T08:52:02;98751.47;;;13.18;55.99
78309;BME280;75657;42.022;21.356;2024-03-23T08:54:28;98752.56;;;13.26;55.85
78309;BME280;75657;42.022;21.356;2024-03-23T08:56:56;98747.69;;;13.28;55.94
78309;BME280;75657;42.022;21.356;2024-03-23T08:59:21;98731.97;;;13.26;56.05
78309;BME280;75657;42.022;21.356;2024-03-23T09:01:49;98729.78;;;13.19;55.72
78309;BME280;75657;42.022;21.356;2024-03-23T09:04:14;98723.94;;;13.26;56.26
78309;BME280;75657;42.022;21.356;2024-03-23T09:06:42;98725.22;;;13.46;56.31
78309;BME280;75657;42.022;21.356;2024-03-23T09:09:08;98728.69;;;13.55;55.56
78309;BME280;75657;42.022;21.356;2024-03-23T09:11:33;98711.56;;;13.39;56.01
78309;BME280;75657;42.022;21.356;2024-03-23T09:13:59;98711.84;;;13.55;54.89
78309;BME280;75657;42.022;21.356;2024-03-23T09:16:24;98705.72;;;13.54;55.49
78309;BME280;75657;42.022;21.356;2024-03-23T09:18:49;98698.72;;;13.79;54.38
78309;BME280;75657;42.022;21.356;2024-03-23T09:21:15;98698.38;;;13.98;54.37
78309;BME280;75657;42.022;21.356;2024-03-23T09:23:43;98689.69;;;14.02;52.68
78309;BME280;75657;42.022;21.356;2024-03-23T09:26:08;98686.41;;;13.87;52.67
78309;BME280;75657;42.022;21.356;2024-03-23T09:28:34;98675.72;;;13.87;53.48
78309;BME280;75657;42.022;21.356;2024-03-23T09:31:06;98671.97;;;13.79;53.63
78309;BME280;75657;42.022;21.356;2024-03-23T09:33:40;98670.41;;;13.70;53.64
78309;BME280;75657;42.022;21.356;2024-03-23T09:36:06;98667.09;;;13.82;52.81
78309;BME280;75657;42.022;21.356;2024-03-23T09:38:32;98663.25;;;14.00;53.28
78309;BME280;75657;42.022;21.356;2024-03-23T09:40:58;98654.53;;;14.12;54.15
78309;BME280;75657;42.022;21.356;2024-03-23T09:43:25;98644.88;;;14.20;53.63
78309;BME280;75657;42.022;21.356;2024-03-23T09:45:53;98646.59;;;14.24;53.22
78309;BME280;75657;42.022;21.356;2024-03-23T09:48:18;98638.28;;;14.47;53.32
78309;BME280;75657;42.022;21.356;2024-03-23T09:50:45;98633.44;;;14.70;52.34
78309;BME280;75657;42.022;21.356;2024-03-23T09:53:12;98631.72;;;14.86;51.82
78309;BME280;75657;42.022;21.356;2024-03-23T09:55:39;98633.28;;;14.87;50.71
78309;BME280;75657;42.022;21.356;2024-03-23T09:58:05;98625.38;;;14.70;51.06
78309;BME280;75657;42.022;21.356;2024-03-23T10:00:34;98620.59;;;14.76;50.95
78309;BME280;75657;42.022;21.356;2024-03-23T10:03:01;98616.34;;;14.96;51.05
78309;BME280;75657;42.022;21.356;2024-03-23T10:05:28;98605.44;;;15.13;49.91
78309;BME280;75657;42.022;21.356;2024-03-23T10:07:53;98603.94;;;15.24;49.56
78309;BME280;75657;42.022;21.356;2024-03-23T10:10:19;98600.25;;;15.17;48.79
78309;BME280;75657;42.022;21.356;2024-03-23T10:12:49;98599.19;;;15.09;48.41
78309;BME280;75657;42.022;21.356;2024-03-23T10:15:25;98600.91;;;15.14;48.18
78309;BME280;75657;42.022;21.356;2024-03-23T10:17:53;98593.88;;;15.21;46.94
78309;BME280;75657;42.022;21.356;2024-03-23T10:20:23;98587.78;;;15.45;47.04
78309;BME280;75657;42.022;21.356;2024-03-23T10:22:50;98577.28;;;15.65;47.45
78309;BME280;75657;42.022;21.356;2024-03-23T10:25:16;98577.53;;;15.72;45.41
78309;BME280;75657;42.022;21.356;2024-03-23T10:27:42;98565.03;;;15.76;46.20
78309;BME280;75657;42.022;21.356;2024-03-23T10:30:13;98565.69;;;15.98;45.65
78309;BME280;75657;42.022;21.356;2024-03-23T10:32:41;98557.31;;;15.87;44.47
78309;BME280;75657;42.022;21.356;2024-03-23T10:35:18;98551.94;;;15.87;44.37
78309;BME280;75657;42.022;21.356;2024-03-23T10:37:44;98546.66;;;16.03;44.92
78309;BME280;75657;42.022;21.356;2024-03-23T10:40:12;98549.00;;;16.17;45.25
78309;BME280;75657;42.022;21.356;2024-03-23T10:42:38;98535.25;;;16.18;44.49
78309;BME280;75657;42.022;21.356;2024-03-23T10:45:05;98533.16;;;16.40;44.58
78309;BME280;75657;42.022;21.356;2024-03-23T10:47:40;98522.03;;;16.54;43.33
78309;BME280;75657;42.022;21.356;2024-03-23T10:50:05;98519.06;;;16.43;42.64
78309;BME280;75657;42.022;21.356;2024-03-23T10:52:33;98504.63;;;16.35;42.14
78309;BME280;75657;42.022;21.356;2024-03-23T10:55:00;98500.81;;;16.36;43.07
78309;BME280;75657;42.022;21.356;2024-03-23T10:57:34;98497.06;;;16.53;41.52
78309;BME280;75657;42.022;21.356;2024-03-23T11:00:03;98488.13;;;16.77;42.62
78309;BME280;75657;42.022;21.356;2024-03-23T11:02:29;98480.44;;;16.92;41.21
78309;BME280;75657;42.022;21.356;2024-03-23T11:04:55;98481.66;;;17.10;42.21
78309;BME280;75657;42.022;21.356;2024-03-23T11:09:53;98458.84;;;17.04;41.58
78309;BME280;75657;42.022;21.356;2024-03-23T11:14:54;98450.34;;;17.34;40.55
78309;BME280;75657;42.022;21.356;2024-03-23T11:17:23;98453.47;;;17.36;38.46
78309;BME280;75657;42.022;21.356;2024-03-23T11:20:02;98456.13;;;17.52;39.87
78309;BME280;75657;42.022;21.356;2024-03-23T11:25:03;98434.19;;;17.69;39.48
78309;BME280;75657;42.022;21.356;2024-03-23T11:27:28;98425.94;;;17.78;38.68
78309;BME280;75657;42.022;21.356;2024-03-23T11:29:54;98426.59;;;17.91;38.72
78309;BME280;75657;42.022;21.356;2024-03-23T11:32:19;98419.16;;;17.84;37.16
78309;BME280;75657;42.022;21.356;2024-03-23T11:34:45;98414.81;;;17.80;36.47
78309;BME280;75657;42.022;21.356;2024-03-23T11:37:10;98407.41;;;17.92;37.21
78309;BME280;75657;42.022;21.356;2024-03-23T11:39:35;98401.03;;;18.01;38.05
78309;BME280;75657;42.022;21.356;2024-03-23T11:42:01;98398.91;;;17.90;36.54
78309;BME280;75657;42.022;21.356;2024-03-23T11:44:26;98395.50;;;17.93;36.84
78309;BME280;75657;42.022;21.356;2024-03-23T11:46:52;98385.97;;;18.00;36.35
78309;BME280;75657;42.022;21.356;2024-03-23T11:49:25;98379.97;;;18.06;35.28
78309;BME280;75657;42.022;21.356;2024-03-23T11:51:54;98368.47;;;18.09;35.69
78309;BME280;75657;42.022;21.356;2024-03-23T11:54:26;98358.69;;;18.21;35.62
78309;BME280;75657;42.022;21.356;2024-03-23T11:59:50;98352.28;;;18.52;36.02
78309;BME280;75657;42.022;21.356;2024-03-23T12:02:18;98343.59;;;18.62;35.98
78309;BME280;75657;42.022;21.356;2024-03-23T12:04:43;98329.81;;;18.67;35.97
78309;BME280;75657;42.022;21.356;2024-03-23T12:07:16;98329.22;;;18.78;35.47
78309;BME280;75657;42.022;21.356;2024-03-23T12:09:46;98322.78;;;18.82;33.09
78309;BME280;75657;42.022;21.356;2024-03-23T12:12:18;98316.94;;;18.80;33.55
78309;BME280;75657;42.022;21.356;2024-03-23T12:14:45;98310.47;;;18.62;33.83
78309;BME280;75657;42.022;21.356;2024-03-23T12:17:15;98308.94;;;18.84;33.36
78309;BME280;75657;42.022;21.356;2024-03-23T12:19:41;98306.34;;;18.91;32.84
78309;BME280;75657;42.022;21.356;2024-03-23T12:22:07;98294.84;;;18.94;34.10
78309;BME280;75657;42.022;21.356;2024-03-23T12:24:34;98297.69;;;19.05;32.41
78309;BME280;75657;42.022;21.356;2024-03-23T12:27:03;98294.94;;;19.01;32.96
78309;BME280;75657;42.022;21.356;2024-03-23T12:29:30;98289.31;;;19.14;33.61
78309;BME280;75657;42.022;21.356;2024-03-23T12:31:59;98288.69;;;19.24;34.03
78309;BME280;75657;42.022;21.356;2024-03-23T12:34:26;98281.50;;;19.35;33.05
78309;BME280;75657;42.022;21.356;2024-03-23T12:36:51;98271.19;;;19.44;33.01
78309;BME280;75657;42.022;21.356;2024-03-23T12:39:17;98278.22;;;19.53;32.99
78309;BME280;75657;42.022;21.356;2024-03-23T12:41:43;98257.47;;;19.60;32.81
78309;BME280;75657;42.022;21.356;2024-03-23T12:44:09;98255.94;;;19.59;32.18
78309;BME280;75657;42.022;21.356;2024-03-23T12:46:37;98245.56;;;19.65;33.18
78309;BME280;75657;42.022;21.356;2024-03-23T12:49:03;98245.66;;;19.72;32.70
78309;BME280;75657;42.022;21.356;2024-03-23T12:51:28;98239.94;;;19.77;33.10
78309;BME280;75657;42.022;21.356;2024-03-23T12:53:54;98234.19;;;19.79;32.98
78309;BME280;75657;42.022;21.356;2024-03-23T12:56:19;98241.97;;;19.50;31.50
78309;BME280;75657;42.022;21.356;2024-03-23T12:58:45;98235.06;;;19.56;33.36
78309;BME280;75657;42.022;21.356;2024-03-23T13:01:10;98231.28;;;19.61;33.15
78309;BME280;75657;42.022;21.356;2024-03-23T13:03:36;98223.69;;;19.74;31.67
78309;BME280;75657;42.022;21.356;2024-03-23T13:06:02;98223.03;;;19.84;32.47
78309;BME280;75657;42.022;21.356;2024-03-23T13:08:32;98219.25;;;19.92;32.74
78309;BME280;75657;42.022;21.356;2024-03-23T13:10:58;98212.72;;;19.97;32.62
78309;BME280;75657;42.022;21.356;2024-03-23T13:13:23;98203.47;;;19.98;31.43
78309;BME280;75657;42.022;21.356;2024-03-23T13:15:52;98196.88;;;19.95;31.74
78309;BME280;75657;42.022;21.356;2024-03-23T13:18:17;98191.94;;;20.01;32.59
78309;BME280;75657;42.022;21.356;2024-03-23T13:20:42;98185.00;;;20.07;32.24
78309;BME280;75657;42.022;21.356;2024-03-23T13:23:08;98186.59;;;20.12;32.44
78309;BME280;75657;42.022;21.356;2024-03-23T13:25:34;98182.00;;;20.16;32.20
78309;BME280;75657;42.022;21.356;2024-03-23T13:27:59;98175.81;;;20.15;32.65
78309;BME280;75657;42.022;21.356;2024-03-23T13:30:26;98180.13;;;20.20;32.65
78309;BME280;75657;42.022;21.356;2024-03-23T13:32:51;98168.13;;;20.21;31.90
78309;BME280;75657;42.022;21.356;2024-03-23T13:35:17;98164.63;;;20.13;32.02
78309;BME280;75657;42.022;21.356;2024-03-23T13:37:43;98158.06;;;20.18;32.59
78309;BME280;75657;42.022;21.356;2024-03-23T13:40:09;98149.22;;;20.21;32.01
78309;BME280;75657;42.022;21.356;2024-03-23T13:42:34;98139.53;;;20.16;31.97
78309;BME280;75657;42.022;21.356;2024-03-23T13:45:00;98154.53;;;20.10;31.99
78309;BME280;75657;42.022;21.356;2024-03-23T13:47:25;98139.47;;;20.09;32.70
78309;BME280;75657;42.022;21.356;2024-03-23T13:49:50;98141.41;;;20.09;32.50
78309;BME280;75657;42.022;21.356;2024-03-23T13:52:16;98136.84;;;20.16;32.61
78309;BME280;75657;42.022;21.356;2024-03-23T13:54:43;98134.94;;;20.21;31.93
78309;BME280;75657;42.022;21.356;2024-03-23T13:57:11;98132.09;;;20.03;31.61